createdAt,value
2018-12-01T00:01:09.874Z,21.07
2018-12-01T00:03:36.958Z,21.50
2018-12-01T00:06:04.182Z,22.30
2018-12-01T00:08:31.279Z,18.07
2018-12-01T00:10:58.382Z,19.67
2018-12-01T00:13:25.469Z,18.03
2018-12-01T00:15:52.588Z,21.67
2018-12-01T00:18:19.675Z,19.37
2018-12-01T00:20:46.770Z,19.10
2018-12-01T00:23:13.870Z,20.73
2018-12-01T00:25:40.966Z,18.10
2018-12-01T00:28:08.058Z,22.77
2018-12-01T00:30:35.176Z,19.93
2018-12-01T00:33:02.379Z,14.53
2018-12-01T00:35:29.467Z,21.43
2018-12-01T00:37:56.563Z,18.53
2018-12-01T00:40:23.666Z,18.47
2018-12-01T00:42:50.770Z,24.43
2018-12-01T00:45:18.810Z,19.50
2018-12-01T00:47:47.089Z,18.07
2018-12-01T00:50:15.346Z,19.20
2018-12-01T00:52:42.503Z,18.87
2018-12-01T00:55:10.887Z,17.17
2018-12-01T00:57:37.991Z,18.47
2018-12-01T01:00:27.873Z,21.03
2018-12-01T01:02:56.554Z,20.27
2018-12-01T01:05:24.678Z,19.10
2018-12-01T01:07:52.150Z,21.63
2018-12-01T01:10:20.002Z,20.30
2018-12-01T01:12:47.111Z,14.27
2018-12-01T01:15:14.218Z,20.83
2018-12-01T01:17:41.313Z,15.47
2018-12-01T01:20:10.467Z,17.80
2018-12-01T01:22:37.566Z,19.37
2018-12-01T01:25:05.746Z,21.40
2018-12-01T01:27:32.839Z,18.70
2018-12-01T01:29:59.934Z,16.37
2018-12-01T01:32:27.016Z,20.90
2018-12-01T01:34:54.119Z,20.50
2018-12-01T01:37:21.254Z,19.10
2018-12-01T01:39:48.333Z,17.77
2018-12-01T01:42:15.426Z,15.83
2018-12-01T01:44:42.526Z,16.93
2018-12-01T01:47:09.634Z,15.77
2018-12-01T01:49:36.715Z,12.70
2018-12-01T01:52:04.347Z,19.87
2018-12-01T01:54:31.447Z,16.90
2018-12-01T01:56:58.561Z,17.47
2018-12-01T01:59:25.672Z,16.10
2018-12-01T02:01:52.754Z,18.93
2018-12-01T02:04:19.843Z,18.10
2018-12-01T02:06:46.926Z,20.30
2018-12-01T02:09:13.998Z,13.93
2018-12-01T02:11:41.094Z,13.37
2018-12-01T02:14:08.182Z,19.63
2018-12-01T02:16:35.279Z,17.57
2018-12-01T02:19:02.368Z,16.33
2018-12-01T02:21:29.457Z,22.03
2018-12-01T02:23:56.594Z,12.23
2018-12-01T02:26:23.698Z,13.93
2018-12-01T02:28:50.786Z,16.07
2018-12-01T02:31:17.932Z,22.30
2018-12-01T02:33:45.030Z,16.03
2018-12-01T02:36:12.117Z,14.37
2018-12-01T02:38:39.259Z,16.83
2018-12-01T02:41:06.360Z,14.57
2018-12-01T02:43:33.446Z,17.40
2018-12-01T02:46:12.060Z,17.30
2018-12-01T02:48:39.148Z,18.30
2018-12-01T02:51:06.247Z,17.37
2018-12-01T02:53:33.330Z,17.23
2018-12-01T02:56:00.414Z,12.87
2018-12-01T02:58:27.513Z,20.70
2018-12-01T03:00:54.618Z,17.07
2018-12-01T03:03:21.717Z,14.90
2018-12-01T03:05:48.818Z,19.37
2018-12-01T03:08:15.990Z,14.43
2018-12-01T03:10:43.103Z,18.07
2018-12-01T03:13:10.209Z,17.23
2018-12-01T03:15:37.331Z,20.17
2018-12-01T03:18:04.504Z,18.03
2018-12-01T03:20:31.590Z,20.57
2018-12-01T03:22:58.685Z,19.67
2018-12-01T03:25:25.777Z,18.40
2018-12-01T03:27:53.877Z,13.33
2018-12-01T03:30:23.377Z,15.13
2018-12-01T03:32:51.258Z,16.30
2018-12-01T03:35:18.964Z,16.47
2018-12-01T03:37:47.382Z,15.53
2018-12-01T03:40:15.105Z,19.23
2018-12-01T03:42:42.235Z,17.87
2018-12-01T03:45:11.464Z,17.83
2018-12-01T03:47:38.708Z,16.13
2018-12-01T03:50:08.208Z,15.90
2018-12-01T03:52:35.300Z,17.23
2018-12-01T03:55:02.405Z,18.40
2018-12-01T03:57:29.547Z,19.70
2018-12-01T03:59:56.635Z,15.43
2018-12-01T04:02:23.746Z,18.17
2018-12-01T04:04:50.823Z,16.93
2018-12-01T04:07:17.918Z,18.40
2018-12-01T04:09:45.026Z,15.87
2018-12-01T04:12:12.130Z,19.30
2018-12-01T04:14:39.214Z,19.27
2018-12-01T04:17:06.129Z,19.57
2018-12-01T04:19:33.218Z,20.27
2018-12-01T04:22:00.366Z,17.23
2018-12-01T04:24:27.470Z,16.93
2018-12-01T04:26:54.614Z,14.73
2018-12-01T04:29:21.726Z,21.67
2018-12-01T04:31:48.826Z,16.80
2018-12-01T04:34:15.925Z,21.57
2018-12-01T04:36:43.034Z,16.97
2018-12-01T04:39:10.130Z,20.73
2018-12-01T04:41:37.214Z,17.20
2018-12-01T04:44:04.346Z,16.87
2018-12-01T04:46:31.426Z,19.50
2018-12-01T04:48:58.518Z,16.50
2018-12-01T04:51:25.646Z,16.97
2018-12-01T04:53:52.734Z,17.17
2018-12-01T04:56:19.817Z,18.13
2018-12-01T04:58:46.925Z,20.50
2018-12-01T05:01:14.014Z,14.83
2018-12-01T05:03:41.106Z,14.87
2018-12-01T05:06:08.198Z,13.97
2018-12-01T05:08:35.286Z,18.43
2018-12-01T05:11:02.390Z,14.53
2018-12-01T05:13:29.506Z,13.57
2018-12-01T05:15:56.629Z,16.67
2018-12-01T05:18:23.751Z,19.30
2018-12-01T05:20:50.878Z,13.47
2018-12-01T05:23:17.955Z,20.33
2018-12-01T05:25:45.034Z,15.97
2018-12-01T05:28:12.138Z,22.40
2018-12-01T05:30:39.262Z,16.00
2018-12-01T05:33:06.362Z,14.03
2018-12-01T05:35:33.467Z,18.27
2018-12-01T05:38:00.574Z,16.97
2018-12-01T05:40:27.649Z,16.20
2018-12-01T05:42:54.731Z,18.67
2018-12-01T05:45:22.466Z,15.73
2018-12-01T05:47:50.179Z,19.87
2018-12-01T05:50:21.299Z,16.87
2018-12-01T05:52:48.770Z,18.57
2018-12-01T05:55:15.858Z,16.37
2018-12-01T05:57:42.959Z,18.93
2018-12-01T06:00:12.342Z,16.63
2018-12-01T06:02:39.445Z,14.93
2018-12-01T06:05:07.308Z,16.93
2018-12-01T06:07:34.406Z,13.93
2018-12-01T06:10:01.535Z,15.97
2018-12-01T06:12:28.659Z,22.77
2018-12-01T06:14:55.741Z,17.77
2018-12-01T06:17:22.831Z,16.27
2018-12-01T06:19:49.930Z,21.10
2018-12-01T06:22:17.050Z,18.80
2018-12-01T06:24:44.122Z,13.90
2018-12-01T06:27:11.281Z,15.73
2018-12-01T06:29:38.375Z,19.67
2018-12-01T06:32:05.706Z,17.73
2018-12-01T06:34:32.795Z,19.90
2018-12-01T06:36:59.902Z,11.47
2018-12-01T06:39:26.978Z,16.20
2018-12-01T06:41:54.078Z,20.63
2018-12-01T06:44:21.166Z,15.70
2018-12-01T06:46:48.266Z,19.03
2018-12-01T06:49:15.363Z,21.17
2018-12-01T06:51:42.458Z,17.23
2018-12-01T06:54:09.553Z,14.10
2018-12-01T06:56:36.706Z,16.30
2018-12-01T06:59:04.074Z,17.03
2018-12-01T07:01:31.166Z,22.63
2018-12-01T07:03:58.261Z,17.20
2018-12-01T07:06:25.354Z,15.13
2018-12-01T07:08:52.438Z,19.07
2018-12-01T07:11:19.523Z,15.80
2018-12-01T07:13:46.610Z,25.23
2018-12-01T07:16:13.692Z,15.63
2018-12-01T07:18:52.299Z,19.83
2018-12-01T07:21:19.375Z,19.67
2018-12-01T07:23:46.475Z,22.07
2018-12-01T07:26:13.622Z,23.10
2018-12-01T07:28:40.706Z,20.23
2018-12-01T07:31:07.793Z,17.97
2018-12-01T07:33:34.903Z,19.77
2018-12-01T07:36:02.000Z,17.03
2018-12-01T07:38:29.080Z,20.00
2018-12-01T07:40:56.185Z,17.87
2018-12-01T07:43:23.275Z,18.57
2018-12-01T07:45:50.374Z,14.77
2018-12-01T07:48:17.477Z,20.53
2018-12-01T07:50:44.634Z,22.63
2018-12-01T07:53:11.731Z,18.53
2018-12-01T07:55:38.818Z,15.83
2018-12-01T07:58:05.921Z,17.30
2018-12-01T08:00:33.023Z,24.97
2018-12-01T08:03:00.118Z,22.73
2018-12-01T08:05:27.214Z,19.97
2018-12-01T08:07:54.314Z,22.30
2018-12-01T08:10:21.402Z,14.93
2018-12-01T08:12:48.506Z,20.77
2018-12-01T08:15:16.490Z,21.63
2018-12-01T08:17:44.295Z,24.90
2018-12-01T08:20:13.163Z,15.67
2018-12-01T08:22:40.270Z,20.00
2018-12-01T08:25:17.091Z,17.13
2018-12-01T08:27:45.371Z,15.47
2018-12-01T08:30:19.171Z,16.13
2018-12-01T08:32:46.254Z,20.27
2018-12-01T08:35:13.346Z,20.50
2018-12-01T08:37:40.449Z,19.60
2018-12-01T08:40:10.227Z,20.60
2018-12-01T08:42:37.366Z,16.40
2018-12-01T08:45:07.403Z,18.70
2018-12-01T08:47:34.522Z,21.17
2018-12-01T08:50:01.634Z,27.10
2018-12-01T08:52:28.738Z,24.40
2018-12-01T08:54:55.825Z,16.03
2018-12-01T08:57:22.991Z,21.63
2018-12-01T08:59:50.095Z,20.40
2018-12-01T09:02:17.238Z,13.20
2018-12-01T09:04:44.350Z,17.27
2018-12-01T09:07:11.462Z,20.70
2018-12-01T09:09:38.571Z,16.33
2018-12-01T09:12:05.767Z,13.87
2018-12-01T09:14:32.857Z,18.30
2018-12-01T09:16:59.951Z,22.40
2018-12-01T09:19:27.046Z,19.37
2018-12-01T09:21:54.138Z,23.33
2018-12-01T09:24:21.237Z,19.13
2018-12-01T09:26:48.338Z,21.30
2018-12-01T09:29:15.422Z,20.77
2018-12-01T09:31:42.563Z,18.83
2018-12-01T09:34:09.653Z,23.13
2018-12-01T09:36:36.743Z,20.00
2018-12-01T09:39:06.522Z,24.97
2018-12-01T09:41:33.626Z,21.50
2018-12-01T09:44:00.715Z,18.90
2018-12-01T09:46:27.818Z,17.17
2018-12-01T09:48:54.918Z,21.13
2018-12-01T09:51:22.016Z,18.57
2018-12-01T09:53:49.126Z,18.47
2018-12-01T09:56:16.238Z,17.17
2018-12-01T09:58:43.327Z,19.10
2018-12-01T10:01:10.438Z,20.50
2018-12-01T10:03:37.543Z,14.77
2018-12-01T10:06:04.663Z,19.17
2018-12-01T10:08:31.770Z,19.47
2018-12-01T10:10:58.866Z,16.40
2018-12-01T10:13:25.990Z,17.93
2018-12-01T10:15:53.102Z,18.47
2018-12-01T10:18:20.214Z,17.80
2018-12-01T10:20:47.332Z,21.00
2018-12-01T10:23:14.461Z,19.40
2018-12-01T10:25:41.583Z,16.27
2018-12-01T10:28:09.750Z,14.27
2018-12-01T10:30:36.943Z,17.90
2018-12-01T10:33:04.864Z,18.87
2018-12-01T10:35:31.974Z,16.73
2018-12-01T10:38:05.518Z,15.13
2018-12-01T10:40:32.642Z,13.97
2018-12-01T10:42:59.754Z,17.10
2018-12-01T10:45:26.864Z,17.30
2018-12-01T10:47:54.054Z,16.93
2018-12-01T10:50:22.415Z,19.50
2018-12-01T10:52:50.918Z,18.87
2018-12-01T10:55:24.946Z,14.30
2018-12-01T10:57:53.586Z,16.17
2018-12-01T11:00:26.523Z,16.27
2018-12-01T11:02:56.234Z,15.53
2018-12-01T11:05:23.936Z,15.93
2018-12-01T11:07:51.166Z,11.93
2018-12-01T11:10:18.290Z,14.30
2018-12-01T11:12:45.400Z,16.90
2018-12-01T11:15:12.539Z,12.97
2018-12-01T11:17:39.640Z,14.30
2018-12-01T11:20:10.478Z,14.93
2018-12-01T11:22:37.704Z,12.90
2018-12-01T11:25:07.570Z,12.87
2018-12-01T11:27:34.729Z,14.07
2018-12-01T11:30:02.199Z,13.70
2018-12-01T11:32:29.298Z,13.20
2018-12-01T11:34:56.391Z,13.57
2018-12-01T11:37:23.503Z,17.60
2018-12-01T11:39:50.602Z,15.73
2018-12-01T11:42:17.711Z,11.47
2018-12-01T11:44:44.801Z,8.97
2018-12-01T11:47:11.908Z,13.93
2018-12-01T11:49:39.130Z,10.17
2018-12-01T11:52:06.271Z,8.60
2018-12-01T11:54:33.455Z,12.17
2018-12-01T11:57:00.550Z,13.87
2018-12-01T11:59:27.663Z,12.70
2018-12-01T12:02:00.275Z,10.67
2018-12-01T12:04:21.935Z,9.83
2018-12-01T12:06:49.054Z,12.73
2018-12-01T12:09:16.172Z,9.87
2018-12-01T12:11:43.270Z,12.47
2018-12-01T12:14:10.391Z,8.53
2018-12-01T12:16:37.510Z,8.97
2018-12-01T12:19:04.842Z,10.53
2018-12-01T12:21:31.950Z,8.60
2018-12-01T12:23:59.050Z,7.77
2018-12-01T12:26:26.192Z,9.80
2018-12-01T12:28:53.311Z,9.80
2018-12-01T12:31:20.414Z,12.40
2018-12-01T12:33:47.522Z,9.13
2018-12-01T12:36:14.608Z,9.90
2018-12-01T12:38:41.696Z,12.80
2018-12-01T12:41:08.793Z,10.03
2018-12-01T12:43:35.895Z,12.67
2018-12-01T12:46:03.022Z,8.30
2018-12-01T12:48:30.171Z,10.43
2018-12-01T12:50:57.256Z,12.77
2018-12-01T12:53:24.350Z,8.27
2018-12-01T12:55:51.454Z,9.90
2018-12-01T12:58:18.554Z,11.33
2018-12-01T13:00:45.650Z,9.93
2018-12-01T13:03:12.754Z,7.23
2018-12-01T13:05:41.971Z,8.93
2018-12-01T13:08:10.232Z,9.63
2018-12-01T13:10:37.330Z,10.37
2018-12-01T13:13:05.371Z,11.73
2018-12-01T13:15:32.525Z,8.17
2018-12-01T13:17:59.674Z,9.93
2018-12-01T13:20:26.786Z,10.03
2018-12-01T13:22:56.219Z,11.13
2018-12-01T13:25:23.302Z,13.17
2018-12-01T13:27:54.208Z,13.40
2018-12-01T13:30:22.482Z,7.73
2018-12-01T13:32:49.610Z,10.67
2018-12-01T13:35:16.793Z,12.73
2018-12-01T13:37:43.922Z,8.93
2018-12-01T13:40:12.928Z,10.47
2018-12-01T13:42:40.154Z,10.17
2018-12-01T13:45:09.690Z,10.73
2018-12-01T13:47:36.862Z,9.23
2018-12-01T13:50:10.102Z,11.50
2018-12-01T13:52:37.214Z,12.40
2018-12-01T13:55:05.307Z,12.30
2018-12-01T13:57:32.418Z,12.07
2018-12-01T13:59:59.511Z,11.83
2018-12-01T14:02:26.614Z,9.87
2018-12-01T14:04:53.734Z,14.57
2018-12-01T14:07:20.847Z,11.83
2018-12-01T14:09:47.972Z,11.50
2018-12-01T14:12:15.074Z,10.60
2018-12-01T14:14:42.161Z,9.87
2018-12-01T14:17:09.273Z,11.17
2018-12-01T14:19:36.419Z,14.57
2018-12-01T14:22:03.606Z,13.03
2018-12-01T14:24:30.739Z,10.60
2018-12-01T14:26:57.851Z,12.23
2018-12-01T14:29:24.970Z,13.53
2018-12-01T14:31:52.075Z,9.87
2018-12-01T14:34:19.255Z,11.50
2018-12-01T14:36:46.355Z,12.83
2018-12-01T14:39:13.479Z,11.77
2018-12-01T14:41:40.602Z,14.67
2018-12-01T14:44:07.716Z,12.03
2018-12-01T14:46:34.819Z,11.80
2018-12-01T14:49:01.932Z,14.53
2018-12-01T14:51:29.026Z,10.50
2018-12-01T14:53:56.151Z,10.90
2018-12-01T14:56:23.252Z,9.53
2018-12-01T14:58:50.363Z,10.17
2018-12-01T15:01:17.459Z,8.87
2018-12-01T15:03:44.579Z,8.77
2018-12-01T15:06:11.694Z,11.27
2018-12-01T15:08:38.783Z,11.07
2018-12-01T15:11:05.935Z,11.50
2018-12-01T15:13:33.053Z,10.30
2018-12-01T15:16:00.172Z,8.45
2018-12-01T15:18:27.273Z,9.73
2018-12-01T15:20:54.375Z,11.33
2018-12-01T15:23:21.500Z,10.30
2018-12-01T15:25:48.610Z,12.03
2018-12-01T15:28:15.750Z,10.67
2018-12-01T15:30:42.880Z,10.30
2018-12-01T15:33:12.478Z,8.53
2018-12-01T15:35:40.535Z,10.67
2018-12-01T15:38:08.623Z,10.63
2018-12-01T15:40:35.854Z,8.97
2018-12-01T15:43:02.994Z,7.25
2018-12-01T15:45:30.108Z,8.70
2018-12-01T15:47:57.244Z,9.80
2018-12-01T15:50:24.362Z,8.67
2018-12-01T15:52:52.894Z,9.27
2018-12-01T15:55:20.438Z,7.97
2018-12-01T15:57:47.594Z,8.87
2018-12-01T16:00:17.802Z,8.83
2018-12-01T16:02:44.953Z,7.43
2018-12-01T16:05:13.105Z,8.40
2018-12-01T16:07:40.186Z,8.57
2018-12-01T16:10:09.642Z,10.90
2018-12-01T16:12:36.743Z,7.37
2018-12-01T16:15:08.718Z,6.83
2018-12-01T16:17:35.963Z,9.50
2018-12-01T16:20:04.000Z,10.77
2018-12-01T16:22:31.107Z,8.67
2018-12-01T16:24:58.214Z,7.13
2018-12-01T16:27:25.331Z,9.13
2018-12-01T16:29:52.443Z,9.13
2018-12-01T16:32:19.559Z,6.43
2018-12-01T16:34:46.651Z,8.77
2018-12-01T16:37:13.794Z,9.60
2018-12-01T16:39:40.946Z,10.93
2018-12-01T16:42:08.200Z,8.80
2018-12-01T16:44:35.550Z,8.23
2018-12-01T16:47:02.689Z,8.53
2018-12-01T16:49:29.847Z,11.93
2018-12-01T16:51:56.974Z,8.80
2018-12-01T16:54:24.095Z,7.10
2018-12-01T16:56:51.206Z,8.60
2018-12-01T16:59:18.327Z,5.53
2018-12-01T17:01:45.426Z,6.77
2018-12-01T17:04:12.534Z,8.10
2018-12-01T17:06:39.622Z,10.20
2018-12-01T17:09:08.034Z,9.60
2018-12-01T17:11:35.272Z,8.33
2018-12-01T17:14:02.478Z,8.60
2018-12-01T17:16:29.601Z,6.83
2018-12-01T17:18:56.872Z,7.87
2018-12-01T17:21:23.987Z,9.10
2018-12-01T17:23:51.095Z,9.63
2018-12-01T17:26:18.218Z,9.87
2018-12-01T17:28:45.318Z,10.23
2018-12-01T17:31:12.402Z,8.07
2018-12-01T17:33:39.526Z,9.67
2018-12-01T17:36:06.635Z,7.90
2018-12-01T17:38:33.759Z,7.70
2018-12-01T17:41:05.784Z,9.07
2018-12-01T17:43:38.367Z,10.47
2018-12-01T17:46:05.494Z,8.30
2018-12-01T17:48:32.626Z,6.70
2018-12-01T17:50:59.758Z,11.03
2018-12-01T17:53:26.862Z,6.80
2018-12-01T17:55:53.995Z,10.80
2018-12-01T17:58:21.147Z,6.93
2018-12-01T18:00:48.243Z,7.27
2018-12-01T18:03:15.343Z,6.43
2018-12-01T18:05:44.447Z,7.10
2018-12-01T18:08:19.700Z,9.10
2018-12-01T18:10:48.383Z,14.43
2018-12-01T18:13:15.582Z,8.97
2018-12-01T18:15:42.702Z,8.07
2018-12-01T18:18:09.830Z,7.47
2018-12-01T18:20:36.967Z,5.03
2018-12-01T18:23:05.078Z,10.37
2018-12-01T18:25:34.542Z,6.83
2018-12-01T18:28:01.650Z,6.83
2018-12-01T18:30:32.552Z,5.80
2018-12-01T18:33:01.877Z,5.83
2018-12-01T18:35:28.974Z,6.03
2018-12-01T18:37:56.079Z,6.27
2018-12-01T18:40:23.214Z,4.27
2018-12-01T18:42:50.703Z,5.03
2018-12-01T18:45:19.139Z,5.23
2018-12-01T18:47:46.302Z,5.63
2018-12-01T18:50:15.487Z,4.67
2018-12-01T18:52:44.784Z,3.73
2018-12-01T18:55:13.067Z,4.40
2018-12-01T18:57:40.263Z,3.40
2018-12-01T19:00:12.685Z,14.37
2018-12-01T19:02:39.859Z,3.00
2018-12-01T19:05:07.078Z,4.37
2018-12-01T19:07:34.171Z,5.33
2018-12-01T19:10:01.283Z,4.97
2018-12-01T19:12:28.391Z,4.23
2018-12-01T19:14:55.498Z,3.10
2018-12-01T19:17:22.668Z,4.30
2018-12-01T19:19:49.782Z,2.00
2018-12-01T19:22:16.862Z,4.75
2018-12-01T19:24:43.965Z,5.27
2018-12-01T19:27:11.051Z,4.47
2018-12-01T19:29:38.174Z,2.03
2018-12-01T19:32:05.343Z,2.30
2018-12-01T19:34:32.439Z,2.30
2018-12-01T19:36:59.555Z,2.57
2018-12-01T19:39:26.667Z,2.57
2018-12-01T19:41:53.767Z,1.90
2018-12-01T19:44:20.876Z,2.97
2018-12-01T19:46:48.000Z,2.33
2018-12-01T19:49:15.109Z,2.87
2018-12-01T19:51:42.202Z,2.27
2018-12-01T19:54:09.299Z,3.33
2018-12-01T19:56:36.403Z,1.83
2018-12-01T19:59:03.544Z,1.57
2018-12-01T20:01:30.639Z,2.17
2018-12-01T20:03:57.769Z,2.20
2018-12-01T20:06:24.878Z,2.67
2018-12-01T20:08:51.982Z,1.37
2018-12-01T20:11:19.098Z,1.13
2018-12-01T20:13:46.207Z,5.10
2018-12-01T20:16:21.595Z,2.37
2018-12-01T20:18:48.758Z,1.30
2018-12-01T20:21:15.864Z,2.60
2018-12-01T20:23:43.019Z,3.33
2018-12-01T20:26:10.127Z,2.07
2018-12-01T20:28:37.282Z,1.00
2018-12-01T20:31:04.917Z,1.53
2018-12-01T20:33:32.033Z,2.87
2018-12-01T20:36:22.804Z,1.90
2018-12-01T20:39:25.083Z,1.10
2018-12-01T20:41:52.201Z,1.57
2018-12-01T20:44:19.302Z,2.37
2018-12-01T20:46:46.411Z,1.30
2018-12-01T20:49:13.507Z,3.07
2018-12-01T20:51:40.626Z,1.97
2018-12-01T20:54:20.883Z,2.67
2018-12-01T20:56:47.980Z,2.07
2018-12-01T20:59:15.082Z,1.87
2018-12-01T21:01:42.198Z,2.80
2018-12-01T21:04:09.281Z,1.23
2018-12-01T21:06:36.367Z,2.57
2018-12-01T21:09:04.503Z,1.70
2018-12-01T21:11:31.606Z,3.33
2018-12-01T21:13:59.486Z,1.90
2018-12-01T21:16:25.837Z,2.50
2018-12-01T21:18:52.949Z,1.67
2018-12-01T21:21:20.047Z,2.07
2018-12-01T21:23:47.154Z,2.20
2018-12-01T21:26:14.259Z,2.33
2018-12-01T21:28:41.365Z,1.73
2018-12-01T21:31:09.211Z,1.33
2018-12-01T21:33:36.291Z,2.90
2018-12-01T21:36:03.408Z,1.27
2018-12-01T21:38:30.518Z,2.50
2018-12-01T21:40:57.631Z,0.90
2018-12-01T21:43:24.750Z,1.07
2018-12-01T21:45:51.864Z,0.93
2018-12-01T21:48:18.973Z,1.00
2018-12-01T21:50:46.844Z,1.20
2018-12-01T21:53:15.934Z,1.37
2018-12-01T21:55:43.034Z,1.20
2018-12-01T21:58:10.126Z,1.63
2018-12-01T22:00:39.332Z,1.10
2018-12-01T22:03:08.416Z,0.93
2018-12-01T22:05:37.911Z,1.10
2018-12-01T22:08:06.409Z,0.90
2018-12-01T22:10:33.579Z,1.60
2018-12-01T22:13:00.670Z,1.07
2018-12-01T22:15:27.804Z,1.63
2018-12-01T22:17:54.902Z,1.23
2018-12-01T22:20:22.502Z,2.10
2018-12-01T22:22:50.527Z,2.07
2018-12-01T22:25:17.670Z,1.33
2018-12-01T22:27:44.782Z,1.47
2018-12-01T22:30:16.816Z,1.47
2018-12-01T22:32:45.534Z,1.40
2018-12-01T22:35:14.231Z,1.83
2018-12-01T22:37:41.335Z,2.30
2018-12-01T22:40:15.635Z,1.80
2018-12-01T22:42:42.726Z,0.83
2018-12-01T22:45:09.847Z,2.03
2018-12-01T22:47:37.314Z,1.87
2018-12-01T22:50:14.076Z,1.00
2018-12-01T22:52:41.271Z,1.20
2018-12-01T22:55:17.391Z,1.23
2018-12-01T22:57:47.096Z,1.37
2018-12-01T23:00:15.790Z,0.80
2018-12-01T23:02:42.927Z,2.67
2018-12-01T23:05:10.119Z,1.93
2018-12-01T23:07:37.218Z,1.53
2018-12-01T23:10:09.113Z,1.77
2018-12-01T23:12:36.242Z,1.20
2018-12-01T23:15:03.584Z,1.67
2018-12-01T23:17:30.694Z,0.93
2018-12-01T23:19:57.792Z,2.77
2018-12-01T23:22:24.890Z,1.17
2018-12-01T23:24:51.997Z,1.03
2018-12-01T23:27:19.128Z,1.30
2018-12-01T23:29:46.233Z,1.43
2018-12-01T23:32:13.330Z,2.30
2018-12-01T23:34:40.441Z,1.10
2018-12-01T23:37:07.542Z,0.83
2018-12-01T23:39:34.659Z,1.00
2018-12-01T23:42:01.778Z,1.73
2018-12-01T23:44:29.006Z,1.67
2018-12-01T23:46:56.086Z,3.27
2018-12-01T23:49:23.174Z,1.17
2018-12-01T23:51:50.394Z,1.30
2018-12-01T23:54:17.495Z,2.33
2018-12-01T23:56:44.594Z,0.83
2018-12-01T23:59:11.689Z,1.03
